createdAt,value
2019-03-23T00:01:46.360Z,96102.36
2019-03-23T00:04:33.110Z,96104.00
2019-03-23T00:07:22.682Z,96085.94
2019-03-23T00:09:49.248Z,96109.22
2019-03-23T00:12:25.619Z,96088.26
2019-03-23T00:15:02.458Z,96114.97
2019-03-23T00:17:45.226Z,96123.00
2019-03-23T00:23:38.057Z,96121.69
2019-03-23T00:26:44.729Z,96132.84
2019-03-23T00:29:21.007Z,96136.11
2019-03-23T00:33:03.231Z,96162.05
2019-03-23T00:43:56.841Z,96158.47
2019-03-23T00:46:29.572Z,96043.41
2019-03-23T00:49:03.492Z,96164.69
2019-03-23T00:51:34.996Z,96175.34
2019-03-23T01:09:47.230Z,96230.63
2019-03-23T01:12:48.768Z,96243.92
2019-03-23T01:15:19.773Z,96220.45
2019-03-23T01:18:10.607Z,96240.80
2019-03-23T01:20:49.670Z,96235.21
2019-03-23T01:23:20.201Z,96213.56
2019-03-23T01:25:51.576Z,96179.84
2019-03-23T01:28:25.007Z,96227.17
2019-03-23T01:37:15.732Z,96243.42
2019-03-23T01:39:52.562Z,96245.06
2019-03-23T01:43:08.391Z,96250.33
2019-03-23T01:45:35.205Z,96233.58
2019-03-23T01:48:08.856Z,96248.52
2019-03-23T01:50:53.213Z,96218.33
2019-03-23T01:53:51.427Z,96205.20
2019-03-23T01:56:32.210Z,96206.34
2019-03-23T01:59:03.505Z,96232.94
2019-03-23T02:01:42.013Z,96223.09
2019-03-23T02:04:37.916Z,96216.19
2019-03-23T02:06:48.145Z,96234.25
2019-03-23T02:09:23.985Z,96238.84
2019-03-23T02:12:03.564Z,96227.67
2019-03-23T02:17:36.631Z,96253.28
2019-03-23T02:20:13.066Z,96238.02
2019-03-23T02:22:50.665Z,96255.91
2019-03-23T02:25:28.577Z,96243.11
2019-03-23T02:28:02.521Z,96228.67
2019-03-23T02:36:42.088Z,96233.13
2019-03-23T02:39:13.254Z,96224.41
2019-03-23T02:41:48.176Z,96225.09
2019-03-23T02:44:19.426Z,96235.07
2019-03-23T02:46:52.522Z,96219.82
2019-03-23T02:49:24.071Z,96233.26
2019-03-23T02:51:55.308Z,96204.39
2019-03-23T02:54:27.435Z,96243.29
2019-03-23T02:56:59.658Z,96237.20
2019-03-23T02:59:33.937Z,96241.47
2019-03-23T03:02:03.956Z,96205.79
2019-03-23T03:04:36.509Z,96232.30
2019-03-23T03:07:10.290Z,96194.72
2019-03-23T03:09:41.329Z,96185.38
2019-03-23T03:12:12.402Z,96204.75
2019-03-23T03:14:43.622Z,96207.34
2019-03-23T03:17:16.833Z,96210.97
2019-03-23T03:19:48.003Z,96209.33
2019-03-23T03:22:22.176Z,96190.64
2019-03-23T03:24:53.138Z,96189.14
2019-03-23T03:27:25.671Z,96180.79
2019-03-23T03:29:59.405Z,96190.14
2019-03-23T03:32:31.223Z,96210.16
2019-03-23T03:35:04.687Z,96199.48
2019-03-23T03:37:35.927Z,96207.70
2019-03-23T03:40:07.597Z,96189.22
2019-03-23T03:42:41.121Z,96214.92
2019-03-23T03:45:16.333Z,96214.73
2019-03-23T03:47:47.630Z,96232.98
2019-03-23T03:50:18.802Z,96235.93
2019-03-23T03:52:52.724Z,96246.09
2019-03-23T03:55:25.550Z,96250.69
2019-03-23T03:57:56.860Z,96246.92
2019-03-23T04:00:30.729Z,96258.41
2019-03-23T04:03:02.477Z,96273.69
2019-03-23T04:05:40.331Z,96275.83
2019-03-23T04:08:16.459Z,96282.23
2019-03-23T04:10:47.732Z,96277.96
2019-03-23T04:13:19.242Z,96294.71
2019-03-23T04:15:50.474Z,96302.25
2019-03-23T04:18:23.881Z,96313.24
2019-03-23T04:20:57.815Z,96328.19
2019-03-23T04:23:29.031Z,96331.64
2019-03-23T04:26:00.276Z,96308.66
2019-03-23T04:28:31.458Z,96320.96
2019-03-23T04:31:03.929Z,96343.30
2019-03-23T04:33:35.352Z,96351.34
2019-03-23T04:36:07.385Z,96354.80
2019-03-23T04:38:38.599Z,96375.15
2019-03-23T04:41:12.683Z,96400.80
2019-03-23T04:43:45.065Z,96398.49
2019-03-23T04:46:16.716Z,96398.99
2019-03-23T04:48:47.868Z,96393.90
2019-03-23T04:51:26.210Z,96379.42
2019-03-23T04:53:57.518Z,96391.95
2019-03-23T04:56:29.979Z,96413.13
2019-03-23T04:59:01.567Z,96402.30
2019-03-23T05:01:32.853Z,96437.94
2019-03-23T05:04:04.176Z,96421.84
2019-03-23T05:06:37.426Z,96443.84
2019-03-23T05:09:13.963Z,96440.89
2019-03-23T05:11:45.070Z,96456.98
2019-03-23T05:14:16.222Z,96474.06
2019-03-23T05:16:47.499Z,96484.43
2019-03-23T05:19:19.033Z,96498.06
2019-03-23T05:21:55.094Z,96513.56
2019-03-23T05:24:25.474Z,96511.73
2019-03-23T05:26:58.238Z,96509.92
2019-03-23T05:29:29.543Z,96530.47
2019-03-23T05:32:00.607Z,96544.12
2019-03-23T05:34:31.813Z,96550.35
2019-03-23T05:37:03.574Z,96554.80
2019-03-23T05:39:34.707Z,96583.91
2019-03-23T05:42:06.395Z,96562.86
2019-03-23T05:44:46.003Z,96600.34
2019-03-23T05:47:19.492Z,96622.07
2019-03-23T05:49:51.229Z,96655.97
2019-03-23T05:52:25.801Z,96647.55
2019-03-23T05:54:56.963Z,96681.48
2019-03-23T05:57:28.093Z,96710.94
2019-03-23T05:59:59.416Z,96732.04
2019-03-23T06:02:49.854Z,96739.11
2019-03-23T06:05:33.737Z,96738.78
2019-03-23T06:08:06.083Z,96760.00
2019-03-23T06:10:38.056Z,96778.94
2019-03-23T06:13:13.661Z,96802.98
2019-03-23T06:15:48.108Z,96824.22
2019-03-23T06:18:22.310Z,96814.66
2019-03-23T06:20:57.633Z,96851.91
2019-03-23T06:23:29.088Z,96858.50
2019-03-23T06:26:13.026Z,96881.88
2019-03-23T06:28:44.940Z,96882.38
2019-03-23T06:31:18.379Z,96914.50
2019-03-23T06:34:05.416Z,96943.99
2019-03-23T06:36:28.584Z,96959.34
2019-03-23T06:39:05.318Z,96973.20
2019-03-23T06:41:36.129Z,96992.80
2019-03-23T06:44:18.332Z,97029.56
2019-03-23T06:46:54.396Z,96942.66
2019-03-23T06:49:25.870Z,97057.75
2019-03-23T06:52:06.503Z,97055.28
2019-03-23T06:54:41.934Z,97068.31
2019-03-23T06:57:25.038Z,97092.91
2019-03-23T07:00:05.726Z,97101.66
2019-03-23T07:02:41.169Z,97140.08
2019-03-23T07:05:39.170Z,97166.14
2019-03-23T07:08:15.423Z,97166.64
2019-03-23T07:11:00.848Z,97190.77
2019-03-23T07:13:35.394Z,97228.06
2019-03-23T07:19:43.914Z,97249.35
2019-03-23T07:25:50.644Z,97239.95
2019-03-23T07:28:26.198Z,97209.08
2019-03-23T07:30:57.555Z,97219.98
2019-03-23T07:33:56.818Z,97261.25
2019-03-23T07:36:34.944Z,97253.81
2019-03-23T07:39:08.169Z,97255.64
2019-03-23T07:45:00.019Z,97265.37
2019-03-23T07:47:38.040Z,97229.06
2019-03-23T07:51:01.161Z,97252.66
2019-03-23T07:53:55.614Z,97245.23
2019-03-23T07:56:28.890Z,97253.16
2019-03-23T07:59:05.596Z,97241.78
2019-03-23T08:01:44.751Z,97249.20
2019-03-23T08:04:47.218Z,97259.10
2019-03-23T08:07:42.582Z,97252.02
2019-03-23T08:10:33.366Z,97255.48
2019-03-23T08:13:05.912Z,97247.72
2019-03-23T08:15:37.905Z,97240.45
2019-03-23T08:18:13.102Z,97262.73
2019-03-23T08:20:45.648Z,97273.97
2019-03-23T08:23:28.249Z,97275.62
2019-03-23T08:29:44.150Z,97317.91
2019-03-23T08:32:22.766Z,97395.05
2019-03-23T08:39:18.571Z,97704.38
2019-03-23T08:48:56.482Z,97933.97
2019-03-23T08:52:11.224Z,97856.73
2019-03-23T08:54:52.614Z,97678.48
2019-03-23T09:01:07.422Z,97754.53
2019-03-23T09:04:11.708Z,97826.25
2019-03-23T09:06:34.542Z,98004.28
2019-03-23T09:09:37.989Z,98141.30
2019-03-23T09:12:34.306Z,98236.10
2019-03-23T09:14:55.957Z,98362.84
2019-03-23T09:17:58.300Z,98366.17
2019-03-23T09:20:31.196Z,98543.43
2019-03-23T09:23:09.663Z,99134.51
2019-03-23T09:25:48.544Z,99314.70
2019-03-23T09:28:27.155Z,99280.45
2019-03-23T09:30:55.377Z,99048.92
2019-03-23T09:34:01.128Z,98823.45
2019-03-23T09:36:32.285Z,99080.77
2019-03-23T09:39:49.805Z,99659.27
2019-03-23T09:42:28.092Z,99965.87
2019-03-23T09:45:29.753Z,100117.88
2019-03-23T09:48:09.954Z,99553.41
2019-03-23T09:51:23.943Z,99337.21
2019-03-23T09:54:25.017Z,99459.56
2019-03-23T09:57:02.176Z,100314.49
2019-03-23T09:59:43.311Z,100672.52
2019-03-23T10:02:34.484Z,101398.24
2019-03-23T10:05:09.028Z,101883.91
2019-03-23T10:07:45.302Z,102110.67
2019-03-23T10:10:22.103Z,102681.59
2019-03-23T10:12:54.328Z,102860.57
2019-03-23T10:15:44.200Z,102259.23
2019-03-23T10:21:29.300Z,100848.58
2019-03-23T10:24:08.354Z,101056.98
2019-03-23T10:28:17.712Z,101622.16
2019-03-23T10:29:15.405Z,102003.77
2019-03-23T10:31:57.762Z,102134.58
2019-03-23T10:34:24.957Z,102750.16
2019-03-23T10:36:55.935Z,102934.39
2019-03-23T10:39:26.824Z,103384.88
2019-03-23T10:42:36.792Z,103310.00
2019-03-23T10:44:48.801Z,103603.16
2019-03-23T10:47:29.132Z,104191.49
2019-03-23T10:50:03.419Z,104352.71
2019-03-23T10:52:37.352Z,103427.65
2019-03-23T10:55:16.043Z,103669.57
2019-03-23T10:57:50.071Z,104172.91
2019-03-23T11:00:55.732Z,103968.91
2019-03-23T11:03:26.794Z,103979.70
2019-03-23T11:06:04.994Z,103782.75
2019-03-23T11:08:58.471Z,104194.81
2019-03-23T11:11:27.399Z,104353.36
2019-03-23T11:14:21.590Z,104451.69
2019-03-23T11:16:59.945Z,104604.48
2019-03-23T11:19:36.764Z,103291.50
2019-03-23T11:22:10.119Z,103416.55
2019-03-23T11:24:46.492Z,103498.61
2019-03-23T11:27:22.430Z,103715.30
2019-03-23T11:30:57.232Z,103329.86
2019-03-23T11:33:09.699Z,103347.98
2019-03-23T11:35:57.685Z,103238.28
2019-03-23T11:38:32.578Z,103194.80
2019-03-23T11:41:15.936Z,103555.73
2019-03-23T11:44:05.001Z,103151.41
2019-03-23T11:47:00.402Z,103040.84
2019-03-23T11:49:13.168Z,103124.58
2019-03-23T11:52:04.888Z,103212.91
2019-03-23T11:54:48.668Z,104136.81
2019-03-23T11:57:50.790Z,104951.11
2019-03-23T12:00:26.321Z,104462.89
2019-03-23T12:03:03.049Z,103509.35
2019-03-23T12:06:15.755Z,103520.71
2019-03-23T12:15:15.179Z,103363.32
2019-03-23T12:18:15.107Z,103216.48
2019-03-23T12:21:11.911Z,103147.61
2019-03-23T12:23:45.563Z,103061.55
2019-03-23T12:26:23.882Z,103015.00
2019-03-23T12:28:54.837Z,102230.03
2019-03-23T12:41:10.004Z,102412.53
2019-03-23T12:43:48.475Z,102576.43
2019-03-23T12:52:04.563Z,102482.09
2019-03-23T12:54:59.375Z,102627.67
2019-03-23T12:57:37.695Z,102427.73
2019-03-23T13:00:20.059Z,102456.31
2019-03-23T13:03:03.938Z,102459.38
2019-03-23T13:05:35.130Z,102562.06
2019-03-23T13:08:06.613Z,101933.11
2019-03-23T13:10:56.211Z,101813.20
2019-03-23T13:13:32.139Z,101606.45
2019-03-23T13:16:03.298Z,101717.53
2019-03-23T13:18:37.191Z,101735.84
2019-03-23T13:21:08.268Z,101227.84
2019-03-23T13:23:44.757Z,101323.53
2019-03-23T13:26:15.910Z,101402.16
2019-03-23T13:28:48.470Z,101288.55
2019-03-23T13:31:19.625Z,100956.22
2019-03-23T13:33:50.775Z,101126.98
2019-03-23T13:36:24.316Z,101341.31
2019-03-23T13:39:07.501Z,101540.91
2019-03-23T13:41:47.034Z,101805.30
2019-03-23T13:44:39.212Z,101928.64
2019-03-23T13:51:40.573Z,102016.30
2019-03-23T14:00:36.440Z,102602.94
2019-03-23T14:13:11.425Z,102680.09
2019-03-23T14:18:45.583Z,101940.95
2019-03-23T14:21:23.304Z,102012.44
2019-03-23T14:24:03.257Z,101933.26
2019-03-23T14:26:39.379Z,101928.46
2019-03-23T14:29:26.261Z,102018.92
2019-03-23T14:31:57.362Z,101744.48
2019-03-23T14:34:34.868Z,101287.80
2019-03-23T14:37:08.855Z,101100.08
2019-03-23T14:40:22.555Z,101208.44
2019-03-23T14:42:53.906Z,101266.55
2019-03-23T14:46:53.132Z,101146.84
2019-03-23T14:49:25.655Z,101114.93
2019-03-23T15:02:00.520Z,100952.75
2019-03-23T15:04:34.624Z,100793.13
2019-03-23T15:07:06.051Z,100199.87
2019-03-23T15:09:39.787Z,100290.79
2019-03-23T15:12:18.743Z,100484.16
2019-03-23T15:14:54.636Z,100281.70
2019-03-23T15:17:31.676Z,100336.49
2019-03-23T15:20:13.533Z,99957.03
2019-03-23T15:23:04.856Z,99943.96
2019-03-23T15:39:14.925Z,99261.05
2019-03-23T15:42:24.927Z,98865.89
2019-03-23T16:03:37.403Z,97923.98
2019-03-23T16:06:53.851Z,97952.56
2019-03-23T16:09:11.993Z,97875.64
2019-03-23T16:11:49.890Z,97804.22
2019-03-23T16:41:47.033Z,97457.16
2019-03-23T16:56:54.135Z,97276.75
2019-03-23T16:59:41.823Z,97236.12
2019-03-23T17:25:14.732Z,96985.51
2019-03-23T17:28:09.900Z,96998.22
2019-03-23T17:30:42.702Z,96964.58
2019-03-23T17:33:15.920Z,96925.02
2019-03-23T17:35:49.766Z,96937.23
2019-03-23T17:38:25.993Z,96908.53
2019-03-23T17:41:03.497Z,96888.60
2019-03-23T17:43:40.648Z,96898.31
2019-03-23T17:46:14.609Z,96894.38
2019-03-23T17:48:55.838Z,96823.55
2019-03-23T17:51:45.803Z,96864.72
2019-03-23T17:54:35.967Z,96835.75
2019-03-23T18:12:51.129Z,96775.92
2019-03-23T18:15:27.706Z,96757.66
2019-03-23T18:18:44.306Z,96749.09
2019-03-23T18:21:37.160Z,96731.34
2019-03-23T18:27:47.160Z,96714.86
2019-03-23T18:30:50.270Z,96670.17
2019-03-23T18:33:50.427Z,96692.80
2019-03-23T18:36:57.965Z,96681.60
2019-03-23T18:39:56.275Z,96665.48
2019-03-23T18:45:55.686Z,96658.25
2019-03-23T18:48:53.112Z,96658.25
2019-03-23T18:51:38.778Z,96668.77
2019-03-23T18:54:21.224Z,96650.02
2019-03-23T18:57:51.480Z,96616.27
2019-03-23T19:00:45.595Z,96611.17
2019-03-23T19:03:49.713Z,96610.85
2019-03-23T19:05:59.773Z,96606.40
2019-03-23T19:08:52.893Z,96619.23
2019-03-23T19:11:38.213Z,96609.85
2019-03-23T19:14:50.197Z,96600.34
2019-03-23T19:20:24.277Z,96572.66
2019-03-23T19:23:50.998Z,96563.61
2019-03-23T19:26:29.200Z,96491.09
2019-03-23T19:32:09.176Z,96507.40
2019-03-23T19:34:37.748Z,96489.98
2019-03-23T19:37:45.009Z,96465.63
2019-03-23T19:40:16.224Z,96442.13
2019-03-23T19:42:59.565Z,96408.95
2019-03-23T19:45:39.598Z,96414.55
2019-03-23T19:48:24.609Z,96432.95
2019-03-23T19:50:57.762Z,96431.63
2019-03-23T20:05:49.780Z,96365.92
2019-03-23T20:08:22.873Z,96423.41
2019-03-23T20:11:49.032Z,96419.45
2019-03-23T20:13:42.355Z,96391.38
2019-03-23T20:16:37.752Z,96389.55
2019-03-23T20:19:38.493Z,96367.56
2019-03-23T20:22:16.554Z,96329.10
2019-03-23T20:24:49.654Z,96351.45
2019-03-23T20:27:22.791Z,96341.59
2019-03-23T20:30:06.153Z,96327.47
2019-03-23T20:36:30.556Z,96266.39
2019-03-23T20:39:04.478Z,96274.11
2019-03-23T20:42:15.936Z,96202.40
2019-03-23T20:44:44.802Z,96298.90
2019-03-23T20:47:37.182Z,96331.42
2019-03-23T20:50:19.774Z,96325.83
2019-03-23T20:53:04.783Z,96306.63
2019-03-23T20:56:28.890Z,96324.02
2019-03-23T20:59:18.170Z,96308.26
2019-03-23T21:03:01.552Z,96332.05
2019-03-23T21:05:33.182Z,96271.84
2019-03-23T21:08:15.782Z,96287.09
2019-03-23T21:11:20.973Z,96256.90
2019-03-23T21:13:49.312Z,96261.16
2019-03-23T21:16:53.319Z,96253.95
2019-03-23T21:19:30.088Z,96215.52
2019-03-23T21:22:05.557Z,96249.64
2019-03-23T21:24:42.680Z,96251.78
2019-03-23T21:27:30.878Z,96205.34
2019-03-23T21:30:15.902Z,96209.11
2019-03-23T21:33:03.869Z,96183.20
2019-03-23T21:36:28.119Z,96172.22
2019-03-23T21:40:35.490Z,96162.38
2019-03-23T21:41:43.087Z,96141.20
2019-03-23T21:44:30.876Z,96153.84
2019-03-23T21:47:40.850Z,96129.03
2019-03-23T21:50:33.472Z,96138.56
2019-03-23T21:53:34.937Z,96110.84
2019-03-23T21:55:56.646Z,96058.05
2019-03-23T21:58:35.923Z,96056.42
2019-03-23T22:01:10.381Z,96087.89
2019-03-23T22:04:10.170Z,96100.19
2019-03-23T22:06:48.738Z,96080.68
2019-03-23T22:22:50.741Z,96029.69
2019-03-23T22:25:30.783Z,96029.85
2019-03-23T22:28:39.123Z,96016.40
2019-03-23T22:31:27.852Z,95994.78
2019-03-23T22:34:01.959Z,95987.25
2019-03-23T22:36:45.563Z,96002.66
2019-03-23T22:39:20.630Z,95969.39
2019-03-23T22:42:00.883Z,95990.20
2019-03-23T22:44:52.733Z,95973.84
2019-03-23T22:47:51.220Z,95950.09
2019-03-23T22:50:23.906Z,95930.42
2019-03-23T22:53:01.800Z,95978.73
2019-03-23T22:55:45.453Z,95985.63
2019-03-23T22:58:32.806Z,95960.55
2019-03-23T23:01:13.079Z,95951.04
2019-03-23T23:03:47.999Z,95939.26
2019-03-23T23:06:30.366Z,95902.70
2019-03-23T23:09:27.773Z,95896.82
2019-03-23T23:11:53.423Z,95907.28
2019-03-23T23:14:26.357Z,95916.80
2019-03-23T23:16:58.689Z,95901.39
2019-03-23T23:19:35.050Z,95878.16
2019-03-23T23:22:18.085Z,95840.37
2019-03-23T23:24:58.659Z,95883.55
2019-03-23T23:27:50.976Z,95868.02
2019-03-23T23:30:34.011Z,95810.51
2019-03-23T23:33:26.855Z,95688.66
2019-03-23T23:36:08.037Z,95808.06
2019-03-23T23:38:52.510Z,95772.89
2019-03-23T23:41:46.784Z,95777.95
2019-03-23T23:44:23.698Z,95769.45
2019-03-23T23:46:56.547Z,95775.02
2019-03-23T23:49:28.165Z,95808.87
2019-03-23T23:52:03.547Z,95794.98
2019-03-23T23:54:39.635Z,95782.72
2019-03-23T23:57:14.586Z,95736.41
2019-03-23T23:59:45.924Z,95722.02
